sensor_id;sensor_type;location;lat;lon;timestamp;pressure;altitude;pressure_sealevel;temperature;humidity
29163;BME280;20331;53.144;8.208;2022-11-20T00:06:26;100806.41;;;-0.03;94.27
29163;BME280;20331;53.144;8.208;2022-11-20T00:16:48;100803.75;;;0.02;94.69
29163;BME280;20331;53.144;8.208;2022-11-20T00:27:09;100799.47;;;0.02;94.39
29163;BME280;20331;53.144;8.208;2022-11-20T00:37:31;100798.44;;;0.09;94.63
29163;BME280;20331;53.144;8.208;2022-11-20T00:47:52;100795.72;;;0.17;94.24
29163;BME280;20331;53.144;8.208;2022-11-20T00:58:13;100795.63;;;0.21;93.68
29163;BME280;20331;53.144;8.208;2022-11-20T01:08:36;100792.78;;;0.32;93.38
29163;BME280;20331;53.144;8.208;2022-11-20T01:18:59;100794.47;;;0.34;93.45
29163;BME280;20331;53.144;8.208;2022-11-20T01:29:25;100786.84;;;0.31;93.49
29163;BME280;20331;53.144;8.208;2022-11-20T01:39:46;100780.78;;;0.34;93.91
29163;BME280;20331;53.144;8.208;2022-11-20T01:50:23;100769.66;;;0.35;93.69
29163;BME280;20331;53.144;8.208;2022-11-20T02:00:45;100759.41;;;0.35;93.10
29163;BME280;20331;53.144;8.208;2022-11-20T02:11:07;100749.13;;;0.36;93.25
29163;BME280;20331;53.144;8.208;2022-11-20T02:32:25;100726.09;;;0.35;92.90
29163;BME280;20331;53.144;8.208;2022-11-20T02:42:47;100737.22;;;0.34;92.74
29163;BME280;20331;53.144;8.208;2022-11-20T02:53:08;100720.22;;;0.30;92.49
29163;BME280;20331;53.144;8.208;2022-11-20T03:03:30;100716.72;;;0.34;92.47
29163;BME280;20331;53.144;8.208;2022-11-20T03:13:51;100705.50;;;0.38;92.62
29163;BME280;20331;53.144;8.208;2022-11-20T03:24:14;100688.53;;;0.34;92.37
29163;BME280;20331;53.144;8.208;2022-11-20T03:34:36;100680.03;;;0.32;91.67
29163;BME280;20331;53.144;8.208;2022-11-20T03:44:57;100668.88;;;0.34;91.60
29163;BME280;20331;53.144;8.208;2022-11-20T03:55:19;100655.94;;;0.39;92.54
29163;BME280;20331;53.144;8.208;2022-11-20T04:05:40;100640.47;;;0.42;91.81
29163;BME280;20331;53.144;8.208;2022-11-20T04:16:02;100670.25;;;0.46;92.89
29163;BME280;20331;53.144;8.208;2022-11-20T04:26:24;100657.69;;;0.37;92.61
29163;BME280;20331;53.144;8.208;2022-11-20T04:36:46;100648.25;;;0.37;93.53
29163;BME280;20331;53.144;8.208;2022-11-20T04:47:07;100643.91;;;0.41;94.09
29163;BME280;20331;53.144;8.208;2022-11-20T04:57:29;100635.25;;;0.45;93.91
29163;BME280;20331;53.144;8.208;2022-11-20T05:07:50;100629.16;;;0.49;93.82
29163;BME280;20331;53.144;8.208;2022-11-20T05:18:12;100635.84;;;0.54;93.20
29163;BME280;20331;53.144;8.208;2022-11-20T05:28:34;100628.28;;;0.50;93.43
29163;BME280;20331;53.144;8.208;2022-11-20T05:38:55;100612.91;;;0.50;92.99
29163;BME280;20331;53.144;8.208;2022-11-20T05:49:22;100608.63;;;0.50;93.90
29163;BME280;20331;53.144;8.208;2022-11-20T05:59:46;100585.09;;;0.36;94.41
29163;BME280;20331;53.144;8.208;2022-11-20T06:10:07;100585.19;;;0.32;94.63
29163;BME280;20331;53.144;8.208;2022-11-20T06:20:29;100583.28;;;0.40;93.87
29163;BME280;20331;53.144;8.208;2022-11-20T06:30:50;100582.53;;;0.36;93.13
29163;BME280;20331;53.144;8.208;2022-11-20T06:41:14;100580.78;;;0.37;92.36
29163;BME280;20331;53.144;8.208;2022-11-20T06:51:36;100587.53;;;0.41;92.48
29163;BME280;20331;53.144;8.208;2022-11-20T07:01:59;100590.97;;;0.40;91.93
29163;BME280;20331;53.144;8.208;2022-11-20T07:12:20;100587.53;;;0.41;91.92
29163;BME280;20331;53.144;8.208;2022-11-20T07:22:45;100591.88;;;0.37;92.20
29163;BME280;20331;53.144;8.208;2022-11-20T07:33:07;100595.22;;;0.41;91.34
29163;BME280;20331;53.144;8.208;2022-11-20T07:43:29;100596.09;;;0.40;91.74
29163;BME280;20331;53.144;8.208;2022-11-20T07:53:51;100595.09;;;0.45;92.22
29163;BME280;20331;53.144;8.208;2022-11-20T08:04:13;100596.84;;;0.43;91.58
29163;BME280;20331;53.144;8.208;2022-11-20T08:14:37;100600.97;;;0.49;91.35
29163;BME280;20331;53.144;8.208;2022-11-20T08:24:58;100597.78;;;0.41;92.08
29163;BME280;20331;53.144;8.208;2022-11-20T08:35:21;100592.88;;;0.32;91.43
29163;BME280;20331;53.144;8.208;2022-11-20T08:45:42;100597.94;;;0.35;92.31
29163;BME280;20331;53.144;8.208;2022-11-20T08:56:05;100597.66;;;0.44;91.75
29163;BME280;20331;53.144;8.208;2022-11-20T09:06:26;100586.44;;;0.49;90.86
29163;BME280;20331;53.144;8.208;2022-11-20T09:16:50;100591.44;;;0.54;89.85
29163;BME280;20331;53.144;8.208;2022-11-20T09:27:12;100587.41;;;0.74;89.89
29163;BME280;20331;53.144;8.208;2022-11-20T09:37:33;100602.06;;;0.98;90.65
29163;BME280;20331;53.144;8.208;2022-11-20T09:48:14;100600.28;;;1.01;87.11
29163;BME280;20331;53.144;8.208;2022-11-20T09:58:45;100600.97;;;1.06;86.98
29163;BME280;20331;53.144;8.208;2022-11-20T10:09:15;100591.66;;;1.04;86.76
29163;BME280;20331;53.144;8.208;2022-11-20T10:30:37;100569.53;;;1.00;84.82
29163;BME280;20331;53.144;8.208;2022-11-20T10:41:03;100564.13;;;1.09;86.81
29163;BME280;20331;53.144;8.208;2022-11-20T10:52:02;100561.41;;;1.13;85.36
29163;BME280;20331;53.144;8.208;2022-11-20T11:02:59;100553.66;;;1.15;83.46
29163;BME280;20331;53.144;8.208;2022-11-20T11:13:22;100549.53;;;1.37;83.57
29163;BME280;20331;53.144;8.208;2022-11-20T11:23:44;100530.78;;;1.35;82.46
29163;BME280;20331;53.144;8.208;2022-11-20T11:34:16;100521.97;;;1.42;82.89
29163;BME280;20331;53.144;8.208;2022-11-20T11:44:44;100512.72;;;1.62;81.76
29163;BME280;20331;53.144;8.208;2022-11-20T11:55:42;100516.34;;;1.81;81.10
29163;BME280;20331;53.144;8.208;2022-11-20T12:06:13;100497.59;;;1.79;80.76
29163;BME280;20331;53.144;8.208;2022-11-20T12:16:37;100478.06;;;1.98;81.79
29163;BME280;20331;53.144;8.208;2022-11-20T12:38:33;100464.00;;;2.08;81.71
29163;BME280;20331;53.144;8.208;2022-11-20T13:10:16;100451.38;;;2.25;80.40
29163;BME280;20331;53.144;8.208;2022-11-20T13:20:44;100443.66;;;2.02;80.62
29163;BME280;20331;53.144;8.208;2022-11-20T13:31:21;100449.34;;;2.10;80.50
29163;BME280;20331;53.144;8.208;2022-11-20T13:41:54;100432.84;;;2.17;79.26
29163;BME280;20331;53.144;8.208;2022-11-20T14:13:26;100411.91;;;2.26;77.73
29163;BME280;20331;53.144;8.208;2022-11-20T14:23:47;100401.84;;;2.20;77.03
29163;BME280;20331;53.144;8.208;2022-11-20T14:34:18;100383.53;;;2.06;74.97
29163;BME280;20331;53.144;8.208;2022-11-20T14:44:42;100375.22;;;1.99;77.72
29163;BME280;20331;53.144;8.208;2022-11-20T14:55:04;100366.69;;;1.99;79.29
29163;BME280;20331;53.144;8.208;2022-11-20T15:05:44;100349.19;;;1.86;80.41
29163;BME280;20331;53.144;8.208;2022-11-20T15:16:24;100332.53;;;1.74;80.06
29163;BME280;20331;53.144;8.208;2022-11-20T15:26:48;100318.66;;;1.55;79.47
29163;BME280;20331;53.144;8.208;2022-11-20T15:37:09;100313.41;;;1.35;82.75
29163;BME280;20331;53.144;8.208;2022-11-20T15:47:33;100300.28;;;1.20;82.52
29163;BME280;20331;53.144;8.208;2022-11-20T15:57:55;100286.34;;;1.02;82.64
29163;BME280;20331;53.144;8.208;2022-11-20T16:08:17;100277.41;;;0.90;81.32
29163;BME280;20331;53.144;8.208;2022-11-20T16:18:38;100283.75;;;0.80;82.83
29163;BME280;20331;53.144;8.208;2022-11-20T16:29:01;100273.03;;;0.69;82.21
29163;BME280;20331;53.144;8.208;2022-11-20T16:39:24;100289.06;;;0.74;81.86
29163;BME280;20331;53.144;8.208;2022-11-20T16:49:46;100277.47;;;0.64;82.20
29163;BME280;20331;53.144;8.208;2022-11-20T17:00:08;100267.31;;;0.61;83.23
29163;BME280;20331;53.144;8.208;2022-11-20T17:10:29;100257.47;;;0.49;84.13
29163;BME280;20331;53.144;8.208;2022-11-20T17:20:54;100254.09;;;0.47;85.25
29163;BME280;20331;53.144;8.208;2022-11-20T17:31:16;100238.81;;;0.44;85.90
29163;BME280;20331;53.144;8.208;2022-11-20T17:41:37;100236.56;;;0.35;84.80
29163;BME280;20331;53.144;8.208;2022-11-20T17:51:59;100230.97;;;0.24;85.66
29163;BME280;20331;53.144;8.208;2022-11-20T18:02:23;100220.91;;;0.18;86.35
29163;BME280;20331;53.144;8.208;2022-11-20T18:12:45;100204.72;;;0.17;87.96
29163;BME280;20331;53.144;8.208;2022-11-20T18:23:06;100199.78;;;0.11;86.83
29163;BME280;20331;53.144;8.208;2022-11-20T18:33:29;100190.56;;;0.06;87.00
29163;BME280;20331;53.144;8.208;2022-11-20T18:43:51;100160.63;;;0.08;85.85
29163;BME280;20331;53.144;8.208;2022-11-20T18:54:34;100146.31;;;0.02;86.47
29163;BME280;20331;53.144;8.208;2022-11-20T19:04:55;100142.59;;;0.11;86.85
29163;BME280;20331;53.144;8.208;2022-11-20T19:15:17;100130.69;;;0.10;86.96
29163;BME280;20331;53.144;8.208;2022-11-20T19:25:39;100128.78;;;0.15;88.23
29163;BME280;20331;53.144;8.208;2022-11-20T19:36:08;100128.59;;;0.21;89.02
29163;BME280;20331;53.144;8.208;2022-11-20T19:46:32;100111.44;;;0.23;88.00
29163;BME280;20331;53.144;8.208;2022-11-20T19:56:54;100108.53;;;0.32;88.09
29163;BME280;20331;53.144;8.208;2022-11-20T20:07:18;100101.72;;;0.32;87.61
29163;BME280;20331;53.144;8.208;2022-11-20T20:17:40;100096.50;;;0.11;86.31
29163;BME280;20331;53.144;8.208;2022-11-20T20:28:01;100095.09;;;0.01;87.69
29163;BME280;20331;53.144;8.208;2022-11-20T20:38:23;100095.34;;;-0.05;87.78
29163;BME280;20331;53.144;8.208;2022-11-20T20:48:44;100092.50;;;-0.22;86.92
29163;BME280;20331;53.144;8.208;2022-11-20T20:59:13;100082.25;;;-0.22;88.59
29163;BME280;20331;53.144;8.208;2022-11-20T21:09:34;100088.31;;;-0.24;90.94
29163;BME280;20331;53.144;8.208;2022-11-20T21:19:56;100084.25;;;-0.30;91.17
29163;BME280;20331;53.144;8.208;2022-11-20T21:30:18;100086.00;;;-0.32;91.25
29163;BME280;20331;53.144;8.208;2022-11-20T21:40:39;100092.00;;;-0.33;90.80
29163;BME280;20331;53.144;8.208;2022-11-20T21:51:09;100078.59;;;-0.39;91.87
29163;BME280;20331;53.144;8.208;2022-11-20T22:01:31;100075.25;;;-0.43;91.07
29163;BME280;20331;53.144;8.208;2022-11-20T22:11:52;100055.56;;;-0.41;92.44
29163;BME280;20331;53.144;8.208;2022-11-20T22:22:14;100046.28;;;-0.43;92.68
29163;BME280;20331;53.144;8.208;2022-11-20T22:32:35;100047.31;;;-0.49;93.47
29163;BME280;20331;53.144;8.208;2022-11-20T22:42:57;100045.66;;;-0.50;94.03
29163;BME280;20331;53.144;8.208;2022-11-20T22:53:18;100045.03;;;-0.58;94.12
29163;BME280;20331;53.144;8.208;2022-11-20T23:03:42;100043.44;;;-0.60;94.44
29163;BME280;20331;53.144;8.208;2022-11-20T23:14:06;100051.25;;;-0.65;94.29
29163;BME280;20331;53.144;8.208;2022-11-20T23:24:28;100046.44;;;-0.74;95.38
29163;BME280;20331;53.144;8.208;2022-11-20T23:34:50;100042.88;;;-0.70;95.27
29163;BME280;20331;53.144;8.208;2022-11-20T23:45:11;100042.88;;;-0.70;95.72
29163;BME280;20331;53.144;8.208;2022-11-20T23:55:33;100035.28;;;-0.71;96.05
